Time;durP1;ratioP1;P1;durP2;ratioP2;P2;SDS_P1;SDS_P2;PMS_P1;PMS_P2;Temp;Humidity;BMP_temperature;BMP_pressure;BME280_temperature;BME280_humidity;BME280_pressure;Samples;Min_cycle;Max_cycle;Signal;HPM_P1;HPM_P2
2021/12/18 00:00:14;;;;;;;;;;;;;;;11.41;72.27;103811.81;5100964;28;49277;-81
2021/12/18 00:02:39;;;;;;;;;;;;;;;11.34;72.38;103820.28;5102365;28;27899;-81
2021/12/18 00:05:04;;;;;;;;;;;;;;;11.32;72.92;103821.94;5101335;28;53312;-81
2021/12/18 00:07:31;;;;;;;;;;;;;;;11.32;72.93;103821.94;5102392;27;26750;-81
2021/12/18 00:09:57;;;;;;;;;;;;;;;11.29;72.91;103821.91;5101448;27;26345;-81
2021/12/18 00:12:22;;;;;;;;;;;;;;;11.26;72.75;103816.66;5101323;28;27115;-79
2021/12/18 00:14:49;;;;;;;;;;;;;;;11.26;72.91;103826.13;5103204;28;27092;-79
2021/12/18 00:17:14;;;;;;;;;;;;;;;11.26;72.62;103814.06;5103553;27;26965;-81
2021/12/18 00:19:39;;;;;;;;;;;;;;;11.24;73.17;103800.25;5103806;28;50373;-80
2021/12/18 00:22:05;;;;;;;;;;;;;;;11.22;72.96;103799.34;5103479;28;26814;-81
2021/12/18 00:24:30;;;;;;;;;;;;;;;11.20;73.61;103795.84;5102958;27;26758;-80
2021/12/18 00:26:56;;;;;;;;;;;;;;;11.22;73.06;103799.34;5103124;28;26789;-80
2021/12/18 00:29:21;;;;;;;;;;;;;;;11.25;73.74;103794.22;5101959;28;36174;-80
2021/12/18 00:31:46;;;;;;;;;;;;;;;11.28;73.72;103789.13;5102420;28;27020;-80
2021/12/18 00:34:11;;;;;;;;;;;;;;;11.30;73.79;103790.00;5102142;28;34147;-79
2021/12/18 00:36:36;;;;;;;;;;;;;;;11.32;73.48;103790.06;5101952;28;40315;-79
2021/12/18 00:39:02;;;;;;;;;;;;;;;11.33;73.02;103797.84;5099673;28;26923;-78
2021/12/18 00:44:02;;;;;;;;;;;;;;;11.40;73.67;103799.69;5097841;28;26962;-80
2021/12/18 00:46:28;;;;;;;;;;;;;;;11.42;73.39;103800.63;5101591;27;26858;-79
2021/12/18 00:48:54;;;;;;;;;;;;;;;11.42;73.15;103803.19;5101753;27;26883;-80
2021/12/18 00:51:19;;;;;;;;;;;;;;;11.42;73.01;103803.19;5100595;27;27943;-80
2021/12/18 00:53:45;;;;;;;;;;;;;;;11.36;72.59;103808.22;5101469;28;26887;-79
2021/12/18 00:56:10;;;;;;;;;;;;;;;11.31;73.11;103804.72;5099796;28;26850;-79
2021/12/18 00:58:35;;;;;;;;;;;;;;;11.26;73.22;103800.25;5099587;27;34497;-80
2021/12/18 01:01:06;;;;;;;;;;;;;;;11.22;73.51;103799.34;5099726;28;57422;-80
2021/12/18 01:03:31;;;;;;;;;;;;;;;11.22;73.38;103808.81;5102655;27;26974;-80
2021/12/18 01:05:56;;;;;;;;;;;;;;;11.21;73.21;103805.34;5102104;28;26964;-81
2021/12/18 01:08:22;;;;;;;;;;;;;;;11.20;73.28;103806.19;5100899;28;53376;-80
2021/12/18 01:13:29;;;;;;;;;;;;;;;11.16;72.94;103809.56;5097519;28;26785;-80
2021/12/18 01:16:03;;;;;;;;;;;;;;;11.10;72.57;103804.25;5106656;28;27007;-80
2021/12/18 01:23:56;;;;;;;;;;;;;;;11.08;73.29;103817.16;5100360;28;26804;-80
2021/12/18 01:26:23;;;;;;;;;;;;;;;11.08;73.91;103811.13;5109212;28;56497;-81
2021/12/18 01:28:48;;;;;;;;;;;;;;;11.11;73.53;103813.75;5099487;27;26979;-80
2021/12/18 01:31:13;;;;;;;;;;;;;;;11.13;73.02;103809.50;5098442;28;28113;-80
2021/12/18 01:33:39;;;;;;;;;;;;;;;11.13;72.80;103812.09;5098001;28;46993;-79
2021/12/18 01:36:04;;;;;;;;;;;;;;;11.12;73.03;103810.34;5098944;27;28089;-79
2021/12/18 01:38:30;;;;;;;;;;;;;;;11.11;73.22;103813.75;5099347;27;26933;-79
2021/12/18 01:40:56;;;;;;;;;;;;;;;11.10;73.21;103814.59;5097176;28;27948;-79
2021/12/18 01:44:12;;;;;;;;;;;;;;;11.10;72.72;103804.25;5101604;27;26837;-80
2021/12/18 01:51:46;;;;;;;;;;;;;;;11.06;73.21;103812.78;5098353;28;26939;-80
2021/12/18 01:54:17;;;;;;;;;;;;;;;11.05;72.82;103805.88;5073536;28;26981;-80
2021/12/18 01:56:42;;;;;;;;;;;;;;;11.03;72.70;103799.78;5073797;28;52507;-80
2021/12/18 01:59:07;;;;;;;;;;;;;;;11.02;73.39;103805.81;5076944;28;27149;-80
2021/12/18 02:01:33;;;;;;;;;;;;;;;11.02;72.45;103811.00;5077277;28;26898;-80
2021/12/18 02:03:58;;;;;;;;;;;;;;;11.00;73.12;103798.00;5076974;28;26880;-80
2021/12/18 02:06:23;;;;;;;;;;;;;;;10.97;72.23;103800.53;5075160;28;57380;-80
2021/12/18 02:08:49;;;;;;;;;;;;;;;10.93;72.64;103803.03;5075402;28;26882;-81
2021/12/18 02:21:43;;;;;;;;;;;;;;;10.78;72.84;103794.94;5099608;28;27261;-78
2021/12/18 02:24:08;;;;;;;;;;;;;;;10.76;72.59;103791.44;5098965;28;26753;-78
2021/12/18 02:26:33;;;;;;;;;;;;;;;10.72;72.41;103787.06;5098920;27;26665;-78
2021/12/18 02:29:01;;;;;;;;;;;;;;;10.65;73.00;103784.31;5098267;28;54070;-80
2021/12/18 02:31:27;;;;;;;;;;;;;;;10.61;72.74;103791.94;5098143;27;27109;-79
2021/12/18 02:33:52;;;;;;;;;;;;;;;10.56;73.39;103794.47;5099215;27;27065;-78
2021/12/18 02:36:25;;;;;;;;;;;;;;;10.51;73.29;103783.13;5099890;28;27496;-79
2021/12/18 02:43:49;;;;;;;;;;;;;;;10.50;72.88;103794.28;5096695;27;27017;-78
2021/12/18 02:46:20;;;;;;;;;;;;;;;10.48;73.83;103800.28;5099107;28;26877;-77
2021/12/18 02:48:46;;;;;;;;;;;;;;;10.46;73.17;103802.81;5099282;27;26985;-79
2021/12/18 02:51:12;;;;;;;;;;;;;;;10.46;73.85;103795.06;5098548;27;26974;-79
2021/12/18 02:53:40;;;;;;;;;;;;;;;10.49;73.83;103796.88;5098503;27;26865;-81
2021/12/18 02:56:06;;;;;;;;;;;;;;;10.52;73.78;103797.81;5097610;27;27460;-81
2021/12/18 02:58:36;;;;;;;;;;;;;;;10.52;73.44;103792.63;5099215;27;26848;-81
2021/12/18 03:01:01;;;;;;;;;;;;;;;10.50;72.64;103794.28;5097334;28;27243;-80
2021/12/18 03:03:31;;;;;;;;;;;;;;;10.48;72.91;103792.53;5098167;27;26653;-79
2021/12/18 03:06:08;;;;;;;;;;;;;;;10.40;73.52;103792.34;5097956;27;26868;-79
2021/12/18 03:08:44;;;;;;;;;;;;;;;10.33;73.84;103782.69;5100980;28;26742;-80
2021/12/18 03:20:13;;;;;;;;;;;;;;;10.23;73.93;103777.28;5098874;28;26917;-79
2021/12/18 03:24:55;;;;;;;;;;;;;;;10.18;73.95;103779.75;5096229;27;26856;-80
2021/12/18 03:27:21;;;;;;;;;;;;;;;10.18;73.42;103774.59;5098833;27;26985;-80
2021/12/18 03:29:47;;;;;;;;;;;;;;;10.18;73.32;103779.75;5099093;27;26953;-80
2021/12/18 03:32:12;;;;;;;;;;;;;;;10.19;73.97;103771.16;5098666;28;26835;-80
2021/12/18 03:34:38;;;;;;;;;;;;;;;10.20;73.58;103777.22;5098723;28;26978;-80
2021/12/18 03:37:03;;;;;;;;;;;;;;;10.18;73.67;103774.59;5099011;28;31294;-80
2021/12/18 03:39:29;;;;;;;;;;;;;;;10.16;73.19;103771.06;5097619;27;27050;-80
2021/12/18 03:41:54;;;;;;;;;;;;;;;10.12;73.87;103774.41;5098813;28;27744;-80
2021/12/18 03:44:20;;;;;;;;;;;;;;;10.07;73.42;103773.41;5097916;28;27364;-80
2021/12/18 03:46:45;;;;;;;;;;;;;;;10.02;73.98;103762.97;5098053;27;26827;-80
2021/12/18 03:49:10;;;;;;;;;;;;;;;9.98;73.92;103750.81;5097535;28;27006;-80
2021/12/18 03:51:35;;;;;;;;;;;;;;;9.99;74.21;103749.97;5097475;28;32931;-80
2021/12/18 03:54:02;;;;;;;;;;;;;;;10.00;73.55;103749.16;5097061;28;26879;-79
2021/12/18 03:56:27;;;;;;;;;;;;;;;10.05;74.15;103749.25;5096536;28;27637;-80
2021/12/18 03:58:52;;;;;;;;;;;;;;;10.09;73.91;103751.06;5098064;28;26974;-78
2021/12/18 04:01:17;;;;;;;;;;;;;;;10.10;73.42;103756.28;5097492;28;27044;-78
2021/12/18 04:03:42;;;;;;;;;;;;;;;10.09;73.98;103753.66;5095810;28;51275;-78
2021/12/18 04:06:08;;;;;;;;;;;;;;;10.09;73.63;103748.47;5095089;28;56158;-78
2021/12/18 04:08:33;;;;;;;;;;;;;;;10.06;74.21;103738.97;5096986;28;26583;-80
2021/12/18 04:10:58;;;;;;;;;;;;;;;10.04;74.11;103750.09;5095977;28;55952;-80
2021/12/18 04:13:23;;;;;;;;;;;;;;;10.01;74.26;103761.22;5096742;28;55288;-78
2021/12/18 04:15:48;;;;;;;;;;;;;;;10.01;74.12;103760.38;5101226;28;26876;-78
2021/12/18 04:18:13;;;;;;;;;;;;;;;9.98;73.22;103765.41;5098572;28;26697;-80
2021/12/18 04:20:39;;;;;;;;;;;;;;;9.91;73.91;103768.69;5096157;28;52711;-79
2021/12/18 04:23:04;;;;;;;;;;;;;;;9.86;73.76;103770.31;5097225;28;26735;-79
2021/12/18 04:25:29;;;;;;;;;;;;;;;9.82;74.43;103758.16;5096392;28;39904;-80
2021/12/18 04:27:56;;;;;;;;;;;;;;;9.79;73.93;103764.09;5096385;27;26923;-78
2021/12/18 04:30:21;;;;;;;;;;;;;;;9.81;74.24;103771.88;5096349;27;27112;-78
2021/12/18 04:32:46;;;;;;;;;;;;;;;9.82;74.06;103776.22;5097682;27;28878;-80
2021/12/18 04:35:11;;;;;;;;;;;;;;;9.86;73.72;103778.03;5102118;28;32497;-80
2021/12/18 04:37:37;;;;;;;;;;;;;;;9.87;73.95;103767.75;5102577;28;26915;-80
2021/12/18 04:40:03;;;;;;;;;;;;;;;9.87;73.35;103761.69;5099145;27;27095;-80
2021/12/18 04:42:29;;;;;;;;;;;;;;;9.85;73.58;103758.22;5100233;28;27042;-81
2021/12/18 04:44:54;;;;;;;;;;;;;;;9.82;73.32;103763.31;5100692;28;26996;-80
2021/12/18 04:47:19;;;;;;;;;;;;;;;9.82;74.13;103768.47;5100912;28;26814;-81
2021/12/18 04:49:44;;;;;;;;;;;;;;;9.80;74.35;103758.09;5102214;28;52346;-81
2021/12/18 04:52:10;;;;;;;;;;;;;;;9.79;73.53;103752.88;5101340;28;55035;-80
2021/12/18 04:54:35;;;;;;;;;;;;;;;9.75;73.83;103751.09;5101256;28;26952;-81
2021/12/18 04:57:00;;;;;;;;;;;;;;;9.71;74.21;103761.31;5102595;28;26845;-80
2021/12/18 04:59:25;;;;;;;;;;;;;;;9.73;74.49;103757.91;5101358;27;26841;-81
2021/12/18 05:01:52;;;;;;;;;;;;;;;9.70;74.38;103757.00;5101425;28;27077;-81
2021/12/18 05:04:18;;;;;;;;;;;;;;;9.67;74.32;103749.16;5101088;27;26929;-80
2021/12/18 05:06:45;;;;;;;;;;;;;;;9.66;74.63;103762.91;5100566;27;26769;-80
2021/12/18 05:09:11;;;;;;;;;;;;;;;9.63;74.44;103762.84;5102855;27;26992;-79
2021/12/18 05:11:37;;;;;;;;;;;;;;;9.60;74.15;103757.56;5101706;27;27000;-79
2021/12/18 05:14:02;;;;;;;;;;;;;;;9.56;73.92;103760.91;5099350;27;26959;-79
2021/12/18 05:16:27;;;;;;;;;;;;;;;9.54;73.98;103775.47;5099114;27;26715;-79
2021/12/18 05:18:52;;;;;;;;;;;;;;;9.53;74.38;103765.97;5098569;28;54418;-79
2021/12/18 05:21:17;;;;;;;;;;;;;;;9.53;74.15;103765.97;5099482;28;26848;-79
2021/12/18 05:23:43;;;;;;;;;;;;;;;9.51;73.83;103767.66;5099992;28;27666;-79
2021/12/18 05:26:08;;;;;;;;;;;;;;;9.49;74.46;103766.72;5100162;28;29253;-79
2021/12/18 05:28:33;;;;;;;;;;;;;;;9.47;73.75;103765.84;5099955;28;56446;-79
2021/12/18 05:30:58;;;;;;;;;;;;;;;9.44;74.03;103765.75;5099721;28;54109;-79
2021/12/18 05:33:23;;;;;;;;;;;;;;;9.39;74.09;103764.75;5099069;28;56595;-79
2021/12/18 05:35:48;;;;;;;;;;;;;;;9.30;73.91;103772.22;5098150;28;47764;-79
2021/12/18 05:38:14;;;;;;;;;;;;;;;9.25;74.21;103766.06;5100024;28;28742;-79
2021/12/18 05:40:39;;;;;;;;;;;;;;;9.24;73.97;103766.91;5099549;28;46018;-79
2021/12/18 05:43:04;;;;;;;;;;;;;;;9.23;74.33;103770.28;5100454;27;26940;-80
2021/12/18 05:45:30;;;;;;;;;;;;;;;9.25;74.06;103773.81;5106598;27;26434;-79
2021/12/18 05:47:55;;;;;;;;;;;;;;;9.24;74.05;103772.06;5101018;28;57425;-80
2021/12/18 05:50:20;;;;;;;;;;;;;;;9.24;74.29;103769.47;5098874;28;26770;-80
2021/12/18 05:52:47;;;;;;;;;;;;;;;9.22;74.11;103773.72;5099562;27;26845;-80
2021/12/18 05:55:12;;;;;;;;;;;;;;;9.21;74.41;103771.97;5100030;27;26838;-80
2021/12/18 05:57:37;;;;;;;;;;;;;;;9.21;74.39;103771.97;5099420;27;26794;-81
2021/12/18 06:00:04;;;;;;;;;;;;;;;9.20;74.55;103772.78;5102357;28;26794;-81
2021/12/18 06:02:29;;;;;;;;;;;;;;;9.20;74.09;103785.69;5101799;27;27169;-81
2021/12/18 06:04:54;;;;;;;;;;;;;;;9.17;74.09;103781.31;5100365;28;54670;-81
2021/12/18 06:07:31;;;;;;;;;;;;;;;9.16;74.48;103783.84;5100779;28;27008;-80
2021/12/18 06:09:57;;;;;;;;;;;;;;;9.14;73.94;103785.53;5098376;27;26455;-81
2021/12/18 06:12:22;;;;;;;;;;;;;;;9.13;74.07;103783.78;5099604;27;27060;-79
2021/12/18 06:14:47;;;;;;;;;;;;;;;9.11;74.23;103782.88;5099445;28;51217;-79
2021/12/18 06:17:12;;;;;;;;;;;;;;;9.10;74.34;103788.84;5100493;28;26897;-79
2021/12/18 06:19:38;;;;;;;;;;;;;;;8.79;74.74;103737.22;5099017;28;26964;-79
2021/12/18 06:22:03;;;;;;;;;;;;;;;9.03;74.09;103786.91;5097389;28;56381;-79
2021/12/18 06:24:28;;;;;;;;;;;;;;;9.05;74.42;103786.13;5097996;28;30044;-80
2021/12/18 06:26:54;;;;;;;;;;;;;;;9.05;73.95;103785.25;5098394;27;27712;-79
2021/12/18 06:29:19;;;;;;;;;;;;;;;9.05;74.07;103795.56;5099213;27;26775;-80
2021/12/18 06:31:44;;;;;;;;;;;;;;;9.04;74.29;103788.66;5097653;28;55490;-80
2021/12/18 06:34:09;;;;;;;;;;;;;;;9.02;73.65;103785.16;5099659;27;27021;-81
2021/12/18 06:36:34;;;;;;;;;;;;;;;8.99;74.44;103795.38;5099456;28;26972;-81
2021/12/18 06:39:00;;;;;;;;;;;;;;;8.98;74.54;103796.22;5097823;28;54927;-79
2021/12/18 06:41:25;;;;;;;;;;;;;;;8.95;74.52;103793.56;5096861;28;52877;-79
2021/12/18 06:43:50;;;;;;;;;;;;;;;8.67;74.46;103751.47;5102618;28;26626;-79
2021/12/18 06:46:15;;;;;;;;;;;;;;;8.97;74.50;103791.88;5101173;27;27027;-79
2021/12/18 06:48:41;;;;;;;;;;;;;;;8.95;74.15;103798.72;5100747;28;26886;-80
2021/12/18 06:51:06;;;;;;;;;;;;;;;8.90;74.26;103795.09;5099562;28;27090;-81
2021/12/18 06:53:31;;;;;;;;;;;;;;;8.87;74.00;103789.88;5097626;28;50745;-81
2021/12/18 06:55:56;;;;;;;;;;;;;;;8.82;74.51;103797.44;5096655;27;26888;-80
2021/12/18 06:58:21;;;;;;;;;;;;;;;8.78;74.31;103794.72;5099401;27;26882;-79
2021/12/18 07:00:47;;;;;;;;;;;;;;;8.75;74.34;103790.38;5097895;28;57600;-79
2021/12/18 07:03:12;;;;;;;;;;;;;;;8.80;74.50;103793.09;5098491;28;26913;-81
2021/12/18 07:05:37;;;;;;;;;;;;;;;8.79;74.24;103794.78;5099828;28;26868;-80
2021/12/18 07:08:03;;;;;;;;;;;;;;;8.78;74.40;103794.72;5099237;28;26735;-79
2021/12/18 07:10:30;;;;;;;;;;;;;;;8.77;74.39;103793.00;5098303;28;27607;-79
2021/12/18 07:12:55;;;;;;;;;;;;;;;8.77;74.19;103798.16;5098839;27;26874;-79
2021/12/18 07:15:20;;;;;;;;;;;;;;;8.77;74.55;103798.16;5096913;28;55982;-80
2021/12/18 07:17:45;;;;;;;;;;;;;;;8.79;74.54;103791.31;5097360;28;55403;-78
2021/12/18 07:20:11;;;;;;;;;;;;;;;8.81;73.85;103784.53;5097805;28;47696;-79
2021/12/18 07:22:36;;;;;;;;;;;;;;;8.85;74.70;103786.38;5098025;28;26904;-79
2021/12/18 07:25:02;;;;;;;;;;;;;;;8.88;74.28;103786.47;5100463;27;26927;-79
2021/12/18 07:27:27;;;;;;;;;;;;;;;8.89;74.29;103783.03;5098385;28;26817;-79
2021/12/18 07:29:52;;;;;;;;;;;;;;;8.90;74.33;103784.78;5097318;28;43126;-79
2021/12/18 07:32:17;;;;;;;;;;;;;;;8.91;74.26;103786.56;5097374;28;29025;-80
2021/12/18 07:34:43;;;;;;;;;;;;;;;8.91;74.23;103786.56;5098016;28;45463;-81
2021/12/18 07:37:08;;;;;;;;;;;;;;;8.92;74.34;103791.75;5098682;28;26383;-81
2021/12/18 07:39:33;;;;;;;;;;;;;;;8.94;74.44;103786.63;5097633;28;55490;-80
2021/12/18 07:41:58;;;;;;;;;;;;;;;8.93;74.42;103790.03;5098429;28;26793;-80
2021/12/18 07:44:24;;;;;;;;;;;;;;;8.93;74.24;103790.03;5098395;28;26929;-80
2021/12/18 07:46:49;;;;;;;;;;;;;;;8.89;74.11;103788.19;5097854;28;42806;-80
2021/12/18 07:49:14;;;;;;;;;;;;;;;8.87;74.23;103784.72;5096924;28;34629;-79
2021/12/18 07:51:39;;;;;;;;;;;;;;;8.85;74.31;103786.38;5096769;28;26817;-79
2021/12/18 07:54:05;;;;;;;;;;;;;;;8.82;74.07;103781.09;5096921;28;56089;-79
2021/12/18 07:56:30;;;;;;;;;;;;;;;8.77;74.20;103782.69;5097197;27;26928;-79
2021/12/18 07:58:55;;;;;;;;;;;;;;;8.72;74.43;103780.84;5097780;28;30805;-79
2021/12/18 08:01:21;;;;;;;;;;;;;;;8.73;74.34;103787.72;5076955;28;40779;-79
2021/12/18 08:03:46;;;;;;;;;;;;;;;8.74;74.39;103789.47;5078233;28;27043;-81
2021/12/18 08:06:11;;;;;;;;;;;;;;;8.75;74.21;103780.06;5078315;28;48838;-81
2021/12/18 08:08:36;;;;;;;;;;;;;;;8.78;74.31;103789.56;5080230;28;57426;-81
2021/12/18 08:11:03;;;;;;;;;;;;;;;8.79;74.44;103787.06;5081230;28;26795;-81
2021/12/18 08:13:28;;;;;;;;;;;;;;;8.80;74.33;103782.78;5081941;28;27091;-79
2021/12/18 08:15:53;;;;;;;;;;;;;;;8.79;74.47;103781.03;5081921;28;46407;-80
2021/12/18 08:18:18;;;;;;;;;;;;;;;8.80;74.51;103782.78;5081693;28;33027;-81
2021/12/18 08:20:44;;;;;;;;;;;;;;;8.82;74.64;103781.09;5081023;28;26958;-81
2021/12/18 08:23:09;;;;;;;;;;;;;;;8.84;74.37;103779.47;5080379;28;27196;-81
2021/12/18 08:25:35;;;;;;;;;;;;;;;8.87;74.47;103774.41;5083350;28;26787;-81
2021/12/18 08:28:01;;;;;;;;;;;;;;;8.89;74.35;103783.91;5082229;28;26979;-81
2021/12/18 08:30:27;;;;;;;;;;;;;;;8.92;74.47;103780.56;5081640;28;26925;-81
2021/12/18 08:32:52;;;;;;;;;;;;;;;8.93;74.20;103774.56;5080483;28;27084;-81
2021/12/18 08:35:18;;;;;;;;;;;;;;;8.94;74.35;103778.91;5080923;28;26794;-81
2021/12/18 08:37:43;;;;;;;;;;;;;;;8.96;74.32;103780.69;5081161;28;27298;-80
2021/12/18 08:40:09;;;;;;;;;;;;;;;8.94;74.36;103786.63;5081000;28;27095;-81
2021/12/18 08:42:34;;;;;;;;;;;;;;;8.91;74.55;103782.28;5079700;28;26815;-81
2021/12/18 08:44:59;;;;;;;;;;;;;;;8.93;74.58;103784.88;5080204;28;28401;-80
2021/12/18 08:47:25;;;;;;;;;;;;;;;8.94;74.43;103786.63;5079611;28;26856;-81
2021/12/18 08:49:51;;;;;;;;;;;;;;;8.92;74.44;103778.88;5082562;28;26836;-81
2021/12/18 08:52:16;;;;;;;;;;;;;;;8.92;74.61;103783.16;5081644;28;27172;-81
2021/12/18 08:54:41;;;;;;;;;;;;;;;8.96;74.32;103785.84;5081540;28;26791;-82
2021/12/18 08:57:07;;;;;;;;;;;;;;;9.00;74.21;103786.81;5080319;28;56923;-78
2021/12/18 08:59:32;;;;;;;;;;;;;;;9.02;74.19;103785.16;5085727;28;27008;-78
2021/12/18 09:01:57;;;;;;;;;;;;;;;9.05;74.28;103786.13;5100788;28;27198;-81
2021/12/18 09:04:22;;;;;;;;;;;;;;;9.07;74.48;103788.75;5101486;28;29988;-80
2021/12/18 09:06:47;;;;;;;;;;;;;;;9.08;74.56;103775.00;5100897;28;42296;-81
2021/12/18 09:09:13;;;;;;;;;;;;;;;9.14;73.74;103788.09;5103713;28;54365;-79
2021/12/18 09:11:38;;;;;;;;;;;;;;;9.17;74.15;103786.47;5102002;28;26878;-80
2021/12/18 09:14:03;;;;;;;;;;;;;;;9.21;74.33;103792.59;5103412;28;46428;-79
2021/12/18 09:16:29;;;;;;;;;;;;;;;9.26;74.43;103780.69;5102476;28;26863;-79
2021/12/18 09:18:54;;;;;;;;;;;;;;;9.27;73.77;103790.19;5100899;27;26912;-79
2021/12/18 09:21:20;;;;;;;;;;;;;;;9.29;73.86;103788.53;5102157;28;31189;-79
2021/12/18 09:23:46;;;;;;;;;;;;;;;9.33;74.15;103786.91;5100033;28;26841;-79
2021/12/18 09:26:11;;;;;;;;;;;;;;;9.34;73.97;103791.22;5099537;28;27037;-78
2021/12/18 09:28:36;;;;;;;;;;;;;;;9.35;74.42;103786.13;5099848;28;26844;-78
2021/12/18 09:31:01;;;;;;;;;;;;;;;9.39;74.18;103782.81;5098813;28;41229;-79
2021/12/18 09:33:26;;;;;;;;;;;;;;;9.39;73.72;103782.81;5098689;28;26889;-80
2021/12/18 09:35:52;;;;;;;;;;;;;;;9.40;73.64;103783.69;5097837;28;52648;-81
2021/12/18 09:38:18;;;;;;;;;;;;;;;9.41;73.24;103777.69;5099389;28;50174;-79
2021/12/18 09:40:43;;;;;;;;;;;;;;;9.39;73.73;103782.81;5100996;28;26877;-80
2021/12/18 09:43:08;;;;;;;;;;;;;;;9.36;73.28;103787.88;5100971;28;26852;-80
2021/12/18 09:45:34;;;;;;;;;;;;;;;9.37;73.37;103783.59;5099548;28;27625;-80
2021/12/18 09:47:59;;;;;;;;;;;;;;;9.38;73.60;103786.19;5099381;28;26903;-80
2021/12/18 09:50:25;;;;;;;;;;;;;;;9.38;74.04;103775.88;5097939;28;26837;-80
2021/12/18 09:52:51;;;;;;;;;;;;;;;9.46;74.15;103779.56;5098380;28;27104;-81
2021/12/18 09:55:17;;;;;;;;;;;;;;;9.54;74.16;103783.22;5099510;28;26825;-82
2021/12/18 09:57:43;;;;;;;;;;;;;;;9.59;73.77;103779.06;5099738;28;26856;-82
2021/12/18 10:00:10;;;;;;;;;;;;;;;9.62;73.54;103773.97;5097479;28;27190;-81
2021/12/18 10:02:35;;;;;;;;;;;;;;;9.67;74.11;103780.13;5099197;28;26956;-81
2021/12/18 10:05:00;;;;;;;;;;;;;;;9.73;74.31;103773.38;5099659;28;26824;-81
2021/12/18 10:07:27;;;;;;;;;;;;;;;9.79;74.33;103783.84;5099521;28;26751;-82
2021/12/18 10:09:53;;;;;;;;;;;;;;;9.84;74.38;103771.94;5099193;28;26946;-82
2021/12/18 10:12:20;;;;;;;;;;;;;;;9.88;74.01;103778.94;5098834;28;26900;-81
2021/12/18 10:14:50;;;;;;;;;;;;;;;9.91;74.37;103768.69;5080115;28;27854;-80
2021/12/18 10:17:20;;;;;;;;;;;;;;;9.97;74.46;103768.88;5100099;28;26759;-80
2021/12/18 10:19:45;;;;;;;;;;;;;;;10.02;74.57;103762.09;5098593;28;27587;-80
2021/12/18 10:22:11;;;;;;;;;;;;;;;10.10;74.47;103765.72;5098905;28;26927;-80
2021/12/18 10:24:38;;;;;;;;;;;;;;;10.16;73.88;103755.56;5100213;28;27026;-80
2021/12/18 10:27:17;;;;;;;;;;;;;;;10.27;73.97;103763.59;5098515;28;26868;-80
2021/12/18 10:29:43;;;;;;;;;;;;;;;10.32;73.99;103761.97;5080511;28;29660;-77
2021/12/18 10:32:10;;;;;;;;;;;;;;;10.33;73.73;103764.63;5080812;28;26836;-79
2021/12/18 10:34:36;;;;;;;;;;;;;;;10.34;73.97;103766.38;5096393;28;27045;-80
2021/12/18 10:37:09;;;;;;;;;;;;;;;10.32;73.88;103757.69;5098115;28;26933;-81
2021/12/18 10:39:36;;;;;;;;;;;;;;;10.31;73.42;103755.94;5097159;28;27682;-79
2021/12/18 10:42:14;;;;;;;;;;;;;;;10.32;73.66;103757.69;5104796;28;27138;-81
2021/12/18 10:44:53;;;;;;;;;;;;;;;10.36;73.69;103749.19;5097272;28;27657;-81
2021/12/18 10:47:19;;;;;;;;;;;;;;;10.40;73.91;103744.94;5096154;28;26824;-80
2021/12/18 10:49:44;;;;;;;;;;;;;;;10.40;73.10;103745.84;5097244;28;26903;-80
2021/12/18 10:52:09;;;;;;;;;;;;;;;10.40;73.80;103740.66;5096387;28;44049;-80
2021/12/18 10:54:35;;;;;;;;;;;;;;;10.43;73.71;103740.72;5095807;28;47974;-80
2021/12/18 10:57:00;;;;;;;;;;;;;;;10.44;73.93;103737.31;5097568;28;27002;-79
2021/12/18 10:59:34;;;;;;;;;;;;;;;10.40;73.58;103730.31;5097862;28;56204;-79
2021/12/18 11:02:01;;;;;;;;;;;;;;;10.37;74.32;103727.69;5098652;28;26984;-79
2021/12/18 11:04:28;;;;;;;;;;;;;;;10.35;73.69;103737.09;5097927;28;26793;-79
2021/12/18 11:06:55;;;;;;;;;;;;;;;10.36;73.87;103730.22;5100956;28;27142;-80
2021/12/18 11:09:27;;;;;;;;;;;;;;;10.37;74.37;103730.28;5099200;28;27129;-80
2021/12/18 11:14:30;;;;;;;;;;;;;;;10.45;74.66;103727.84;5093243;28;26989;-79
2021/12/18 11:16:59;;;;;;;;;;;;;;;10.50;73.92;103727.09;5096916;28;26773;-80
2021/12/18 11:19:25;;;;;;;;;;;;;;;10.53;74.00;103722.03;5095882;28;26921;-79
2021/12/18 11:21:52;;;;;;;;;;;;;;;10.56;73.52;103716.91;5096595;28;27025;-79
2021/12/18 11:24:19;;;;;;;;;;;;;;;10.56;73.07;103709.16;5096869;28;26894;-80
2021/12/18 11:27:01;;;;;;;;;;;;;;;10.54;73.26;103713.41;5097327;28;26778;-80
2021/12/18 11:29:30;;;;;;;;;;;;;;;10.53;73.49;103711.69;5098424;28;26990;-80
2021/12/18 11:31:56;;;;;;;;;;;;;;;10.50;73.39;103711.59;5097698;28;26851;-78
2021/12/18 11:34:21;;;;;;;;;;;;;;;10.50;73.36;103708.13;5095203;28;28897;-79
2021/12/18 11:36:49;;;;;;;;;;;;;;;10.50;73.53;103701.25;5078993;28;26798;-78
2021/12/18 11:39:15;;;;;;;;;;;;;;;10.49;74.07;103702.13;5098776;28;27958;-79
2021/12/18 11:41:41;;;;;;;;;;;;;;;10.46;73.88;103709.78;5100063;28;26568;-78
2021/12/18 11:44:25;;;;;;;;;;;;;;;10.45;73.65;103692.56;5100608;28;26950;-80
2021/12/18 11:46:50;;;;;;;;;;;;;;;10.44;73.60;103697.69;5103128;28;26693;-79
2021/12/18 11:49:15;;;;;;;;;;;;;;;10.41;73.62;103690.75;5098948;28;30006;-78
2021/12/18 11:51:55;;;;;;;;;;;;;;;10.42;73.95;103697.63;5099597;28;27066;-78
2021/12/18 11:54:38;;;;;;;;;;;;;;;10.41;74.20;103680.41;5100791;28;27039;-79
2021/12/18 11:57:03;;;;;;;;;;;;;;;10.45;73.42;103682.22;5100231;28;26840;-79
2021/12/18 11:59:39;;;;;;;;;;;;;;;10.45;73.41;103676.19;5098791;28;27208;-79
2021/12/18 12:02:04;;;;;;;;;;;;;;;10.46;73.64;103678.78;5080414;28;27000;-79
2021/12/18 12:04:48;;;;;;;;;;;;;;;10.49;73.58;103684.03;5104070;28;26794;-80
2021/12/18 12:07:19;;;;;;;;;;;;;;;10.48;73.78;103671.94;5100385;28;26992;-79
2021/12/18 12:10:05;;;;;;;;;;;;;;;10.55;73.90;103672.94;5098977;28;27090;-80
2021/12/18 12:12:47;;;;;;;;;;;;;;;10.59;74.27;103665.28;5097215;28;27094;-78
2021/12/18 12:15:14;;;;;;;;;;;;;;;10.61;73.58;103663.59;5097907;28;26884;-79
2021/12/18 12:17:52;;;;;;;;;;;;;;;10.65;73.73;103674.88;5101039;28;26848;-79
2021/12/18 12:20:31;;;;;;;;;;;;;;;10.70;74.25;103672.38;5100376;28;27015;-79
2021/12/18 12:22:58;;;;;;;;;;;;;;;10.74;73.82;103666.44;5098992;28;27008;-79
2021/12/18 12:25:35;;;;;;;;;;;;;;;10.74;73.19;103667.31;5098752;28;27035;-79
2021/12/18 12:28:09;;;;;;;;;;;;;;;10.74;73.17;103669.03;5099938;28;26821;-79
2021/12/18 12:30:43;;;;;;;;;;;;;;;10.70;72.83;103662.03;5099274;28;28172;-78
2021/12/18 12:33:10;;;;;;;;;;;;;;;10.70;73.07;103667.22;5100399;28;26903;-80
2021/12/18 12:35:55;;;;;;;;;;;;;;;10.71;73.57;103663.78;5106646;28;26905;-79
2021/12/18 12:38:22;;;;;;;;;;;;;;;10.70;73.00;103657.75;5087426;28;26816;-77
2021/12/18 12:40:48;;;;;;;;;;;;;;;10.68;74.06;103652.53;5102219;28;27368;-80
2021/12/18 12:43:20;;;;;;;;;;;;;;;10.66;73.47;103650.78;5100691;28;26768;-78
2021/12/18 12:45:48;;;;;;;;;;;;;;;10.65;73.48;103649.91;5098634;28;26957;-79
2021/12/18 12:48:16;;;;;;;;;;;;;;;10.66;73.36;103654.22;5098836;28;26726;-81
2021/12/18 12:50:42;;;;;;;;;;;;;;;10.65;74.15;103639.56;5097566;28;26859;-81
2021/12/18 12:53:08;;;;;;;;;;;;;;;10.68;73.66;103643.06;5096610;27;27068;-78
2021/12/18 12:55:40;;;;;;;;;;;;;;;10.70;73.92;103641.38;5098173;28;27396;-79
2021/12/18 12:58:15;;;;;;;;;;;;;;;10.72;73.53;103634.53;5105109;28;26877;-80
2021/12/18 13:00:41;;;;;;;;;;;;;;;10.72;73.95;103635.41;5105779;28;26840;-80
2021/12/18 13:03:09;;;;;;;;;;;;;;;10.74;73.62;103632.84;5101006;28;27110;-81
2021/12/18 13:05:43;;;;;;;;;;;;;;;10.76;73.27;103631.16;5111762;28;27830;-81
2021/12/18 13:08:09;;;;;;;;;;;;;;;10.77;73.26;103635.47;5098736;28;26886;-80
2021/12/18 13:10:36;;;;;;;;;;;;;;;10.78;73.37;103626.88;5098183;28;27064;-81
2021/12/18 13:13:05;;;;;;;;;;;;;;;10.83;74.31;103627.84;5099966;28;27051;-79
2021/12/18 13:15:49;;;;;;;;;;;;;;;10.87;73.88;103625.34;5097472;28;27072;-79
2021/12/18 13:18:14;;;;;;;;;;;;;;;10.92;74.14;103622.84;5096022;28;26985;-79
2021/12/18 13:20:41;;;;;;;;;;;;;;;10.93;73.16;103619.41;5096178;28;26835;-80
2021/12/18 13:23:06;;;;;;;;;;;;;;;10.94;73.69;103616.00;5098224;28;26836;-79